Time;durP1;ratioP1;P1;durP2;ratioP2;P2;SDS_P1;SDS_P2;PMS_P1;PMS_P2;Temp;Humidity;BMP_temperature;BMP_pressure;BME280_temperature;BME280_humidity;BME280_pressure;Samples;Min_cycle;Max_cycle;Signal;HPM_P1;HPM_P2
2023/10/13 00:02:10;;;;;;;97.88;55.25;;;16.10;99.90;;;;;;7372670;19;20019;-67
2023/10/13 00:04:37;;;;;;;98.82;53.78;;;16.10;99.90;;;;;;7370237;19;20026;-68
2023/10/13 00:07:04;;;;;;;96.70;54.45;;;16.20;99.90;;;;;;7374069;19;20025;-66
2023/10/13 00:09:37;;;;;;;77.22;49.17;;;16.20;99.90;;;;;;7374419;19;20042;-66
2023/10/13 00:12:05;;;;;;;98.80;52.08;;;16.30;99.90;;;;;;7374745;19;20058;-66
2023/10/13 00:14:34;;;;;;;91.93;51.90;;;16.20;99.90;;;;;;7374573;19;20482;-66
2023/10/13 00:17:10;;;;;;;94.93;50.08;;;16.30;99.90;;;;;;7374301;19;20019;-67
2023/10/13 00:19:38;;;;;;;78.45;47.65;;;16.30;99.90;;;;;;7376603;19;20049;-68
2023/10/13 00:22:11;;;;;;;82.38;45.92;;;16.30;99.90;;;;;;7374660;19;20482;-68
2023/10/13 00:24:58;;;;;;;74.00;44.30;;;16.30;99.90;;;;;;7367395;19;20798;-68
2023/10/13 00:32:46;;;;;;;72.82;40.33;;;16.30;99.90;;;;;;7371767;19;20817;-67
2023/10/13 00:35:14;;;;;;;67.07;39.88;;;16.30;99.90;;;;;;7372790;19;20026;-68
2023/10/13 00:37:43;;;;;;;66.22;42.40;;;16.30;99.90;;;;;;7372278;19;20027;-67
2023/10/13 00:40:40;;;;;;;68.82;41.53;;;16.30;99.90;;;;;;7374019;19;20014;-68
2023/10/13 00:45:57;;;;;;;67.07;42.53;;;16.40;99.90;;;;;;7372897;19;20026;-67
2023/10/13 00:48:32;;;;;;;66.97;40.97;;;16.40;99.90;;;;;;7371435;19;20032;-67
2023/10/13 00:51:12;;;;;;;67.93;42.03;;;16.40;99.90;;;;;;7370776;19;20015;-67
2023/10/13 00:53:44;;;;;;;71.22;40.60;;;16.40;99.90;;;;;;7370302;19;20050;-67
2023/10/13 00:56:21;;;;;;;70.32;42.85;;;16.40;99.90;;;;;;7369099;19;20720;-67
2023/10/13 00:58:51;;;;;;;66.35;42.08;;;16.30;99.90;;;;;;7366399;19;20470;-68
2023/10/13 01:01:18;;;;;;;63.17;41.78;;;16.40;99.90;;;;;;7371118;19;20022;-67
2023/10/13 01:03:49;;;;;;;60.42;40.65;;;16.40;99.90;;;;;;7369099;19;20023;-66
2023/10/13 01:06:20;;;;;;;75.50;45.15;;;16.40;99.90;;;;;;7370227;19;20772;-67
2023/10/13 01:08:50;;;;;;;64.68;41.20;;;16.40;99.90;;;;;;7371232;19;20026;-66
2023/10/13 01:11:23;;;;;;;70.70;43.55;;;16.40;99.90;;;;;;7374114;19;20579;-66
2023/10/13 01:13:53;;;;;;;67.45;41.80;;;16.40;99.90;;;;;;7367476;19;20014;-68
2023/10/13 01:16:21;;;;;;;76.65;44.30;;;16.40;99.90;;;;;;7369813;19;20015;-67
2023/10/13 01:18:48;;;;;;;71.68;41.88;;;16.40;99.90;;;;;;7369669;19;20031;-68
2023/10/13 01:21:16;;;;;;;65.90;43.75;;;16.40;99.90;;;;;;7372738;19;20813;-68
2023/10/13 01:23:45;;;;;;;76.43;45.75;;;16.30;99.90;;;;;;7368360;19;20021;-68
2023/10/13 01:26:13;;;;;;;66.90;43.00;;;16.40;99.90;;;;;;7372111;19;20029;-68
2023/10/13 01:28:46;;;;;;;75.38;45.72;;;16.40;99.90;;;;;;7369451;19;20014;-67
2023/10/13 01:31:24;;;;;;;74.93;43.25;;;16.30;99.90;;;;;;7376491;19;20018;-67
2023/10/13 01:34:03;;;;;;;74.72;44.83;;;16.40;99.90;;;;;;7368844;19;20030;-68
2023/10/13 01:36:35;;;;;;;73.25;43.88;;;16.30;99.90;;;;;;7372191;19;20078;-69
2023/10/13 01:39:01;;;;;;;70.45;43.35;;;16.40;99.90;;;;;;7363851;19;20026;-66
2023/10/13 01:41:30;;;;;;;70.57;42.60;;;16.40;99.90;;;;;;7372935;19;20367;-68
2023/10/13 01:43:57;;;;;;;69.50;42.53;;;16.40;99.90;;;;;;7363927;19;20023;-69
2023/10/13 01:46:23;;;;;;;71.80;45.03;;;16.40;99.90;;;;;;7372242;19;20026;-68
2023/10/13 01:48:54;;;;;;;77.70;45.58;;;16.40;99.90;;;;;;7369339;19;20025;-68
2023/10/13 01:51:23;;;;;;;66.82;43.78;;;16.40;99.90;;;;;;7372380;19;20022;-66
2023/10/13 01:53:56;;;;;;;75.50;46.17;;;16.40;99.90;;;;;;7372200;19;20018;-66
2023/10/13 01:56:23;;;;;;;70.68;43.70;;;16.40;99.90;;;;;;7371866;19;20014;-67
2023/10/13 01:58:49;;;;;;;73.63;43.53;;;16.40;99.90;;;;;;7371940;19;20029;-67
2023/10/13 02:01:26;;;;;;;71.03;42.40;;;16.40;99.90;;;;;;7368775;19;20773;-66
2023/10/13 02:04:03;;;;;;;67.07;43.03;;;16.40;99.90;;;;;;7370559;19;20019;-69
2023/10/13 02:06:33;;;;;;;68.22;43.78;;;16.40;99.90;;;;;;7374910;19;20858;-68
2023/10/13 02:09:13;;;;;;;63.17;40.83;;;16.40;99.90;;;;;;7372092;19;20011;-69
2023/10/13 02:11:45;;;;;;;;;;;16.50;99.90;;;;;;7378895;19;20023;-67
2023/10/13 02:14:12;;;;;;;63.33;40.40;;;16.50;99.90;;;;;;7375681;19;20732;-66
2023/10/13 02:16:42;;;;;;;61.88;40.95;;;16.40;99.90;;;;;;7377877;19;20018;-66
2023/10/13 02:19:08;;;;;;;63.10;40.10;;;16.50;99.90;;;;;;7376869;19;20375;-67
2023/10/13 02:21:44;;;;;;;61.22;41.33;;;16.50;99.90;;;;;;7375502;19;20542;-66
2023/10/13 02:24:17;;;;;;;62.50;39.38;;;16.40;99.90;;;;;;7376426;19;20018;-66
2023/10/13 02:26:45;;;;;;;58.90;40.47;;;16.40;99.90;;;;;;7375787;19;20115;-67
2023/10/13 02:29:17;;;;;;;64.15;39.25;;;16.40;99.90;;;;;;7375814;19;20014;-68
2023/10/13 02:31:54;;;;;;;55.55;37.40;;;16.40;99.90;;;;;;7377583;19;20018;-67
2023/10/13 02:34:22;;;;;;;59.33;38.88;;;16.40;99.90;;;;;;7376272;19;20022;-68
2023/10/13 02:36:49;;;;;;;57.75;37.30;;;16.40;99.90;;;;;;7376016;19;20407;-66
2023/10/13 02:39:16;;;;;;;53.20;36.92;;;16.40;99.90;;;;;;7378260;19;20081;-65
2023/10/13 02:41:49;;;;;;;54.70;36.30;;;16.40;99.90;;;;;;7377973;19;20022;-66
2023/10/13 02:44:49;;;;;;;51.30;35.38;;;16.40;99.90;;;;;;7374869;19;21337;-68
2023/10/13 02:47:14;;;;;;;56.47;36.35;;;16.40;99.90;;;;;;7376726;19;20022;-66
2023/10/13 02:49:43;;;;;;;52.10;34.22;;;16.40;99.90;;;;;;7377165;19;20035;-66
2023/10/13 02:52:10;;;;;;;53.65;35.78;;;16.40;99.90;;;;;;7376792;19;20038;-67
2023/10/13 02:55:10;;;;;;;57.13;34.80;;;16.40;99.90;;;;;;7374758;19;20837;-68
2023/10/13 02:57:34;;;;;;;54.13;33.88;;;16.40;99.90;;;;;;7375735;19;20025;-67
2023/10/13 03:00:12;;;;;;;59.65;34.63;;;16.40;99.90;;;;;;7372202;19;20580;-68
2023/10/13 03:02:44;;;;;;;56.90;34.75;;;16.40;99.90;;;;;;7378727;19;20010;-66
2023/10/13 03:05:13;;;;;;;53.40;34.90;;;16.40;99.90;;;;;;7375719;19;20020;-67
2023/10/13 03:07:43;;;;;;;55.25;34.70;;;16.40;99.90;;;;;;7377370;19;20102;-68
2023/10/13 03:10:10;;;;;;;49.05;33.60;;;16.40;99.90;;;;;;7375969;19;20050;-66
2023/10/13 03:12:41;;;;;;;54.83;32.95;;;16.40;99.90;;;;;;7376237;19;20363;-68
2023/10/13 03:15:17;;;;;;;49.92;32.63;;;16.40;99.90;;;;;;7372418;19;20077;-66
2023/10/13 03:17:45;;;;;;;56.88;33.38;;;16.40;99.90;;;;;;7376297;19;20105;-66
2023/10/13 03:20:22;;;;;;;52.65;33.03;;;16.40;99.90;;;;;;7376193;19;20014;-67
2023/10/13 03:22:52;;;;;;;47.47;30.92;;;16.40;99.90;;;;;;7374474;19;20021;-65
2023/10/13 03:25:37;;;;;;;53.33;30.02;;;16.40;99.90;;;;;;7374560;19;20022;-66
2023/10/13 03:28:07;;;;;;;47.22;30.05;;;16.40;99.90;;;;;;7375445;19;20370;-66
2023/10/13 03:30:53;;;;;;;48.13;31.17;;;16.30;99.90;;;;;;7374753;19;20018;-68
2023/10/13 03:33:26;;;;;;;51.55;31.60;;;16.40;99.90;;;;;;7376634;19;20022;-68
2023/10/13 03:35:54;;;;;;;53.88;31.02;;;16.30;99.90;;;;;;7373395;19;20014;-67
2023/10/13 03:38:20;;;;;;;52.65;32.42;;;16.30;99.90;;;;;;7377196;19;20018;-67
2023/10/13 03:40:56;;;;;;;52.50;33.63;;;16.40;99.90;;;;;;7374964;19;20026;-66
2023/10/13 03:43:23;;;;;;;58.10;34.08;;;16.40;99.90;;;;;;7378082;19;20030;-67
2023/10/13 03:46:00;;;;;;;58.55;35.55;;;16.30;99.90;;;;;;7372678;19;20026;-67
2023/10/13 03:51:08;;;;;;;53.20;33.35;;;16.40;99.90;;;;;;7372520;19;20033;-67
2023/10/13 03:53:52;;;;;;;59.33;35.55;;;16.30;99.90;;;;;;7375457;19;20093;-68
2023/10/13 03:56:26;;;;;;;63.10;36.00;;;16.40;99.90;;;;;;7373960;19;21246;-68
2023/10/13 03:58:58;;;;;;;56.70;36.33;;;16.30;99.90;;;;;;7374313;19;20029;-68
2023/10/13 04:01:46;;;;;;;56.53;36.38;;;16.30;99.90;;;;;;7375076;19;20018;-66
2023/10/13 04:04:12;;;;;;;61.08;37.40;;;16.30;99.90;;;;;;7374778;19;20656;-65
2023/10/13 04:07:38;;;;;;;57.70;35.80;;;16.30;99.90;;;;;;7374935;19;20526;-66
2023/10/13 04:17:29;;;;;;;51.60;34.53;;;16.30;99.90;;;;;;7373234;19;20400;-68
2023/10/13 04:36:21;;;;;;;59.13;36.70;;;16.20;99.90;;;;;;7374523;19;20031;-65
2023/10/13 04:38:59;;;;;;;54.40;33.72;;;16.30;99.90;;;;;;7374009;19;20932;-65
2023/10/13 04:41:43;;;;;;;54.78;34.05;;;16.30;99.90;;;;;;7375817;19;20021;-64
2023/10/13 04:49:49;;;;;;;55.75;33.13;;;16.20;99.90;;;;;;7378029;19;20082;-65
2023/10/13 04:55:24;;;;;;;50.47;32.90;;;16.20;99.90;;;;;;7377522;19;20026;-65
2023/10/13 04:58:00;;;;;;;51.17;32.67;;;16.10;99.90;;;;;;7368171;19;20078;-66
2023/10/13 05:00:55;;;;;;;50.58;31.85;;;16.20;99.90;;;;;;7372515;19;20018;-65
2023/10/13 05:03:52;;;;;;;51.33;31.13;;;16.20;99.90;;;;;;7379570;19;20022;-64
2023/10/13 05:45:10;;;;;;;34.55;21.38;;;16.00;99.90;;;;;;7372537;19;20375;-67
2023/10/13 06:28:40;;;;;;;15.45;12.82;;;16.10;99.90;;;;;;7370931;19;20036;-62
2023/10/13 06:31:22;;;;;;;9.60;8.20;;;16.10;99.90;;;;;;7371279;19;20015;-64
2023/10/13 06:33:48;;;;;;;10.75;8.90;;;16.20;99.90;;;;;;7373547;19;20021;-62
2023/10/13 06:36:17;;;;;;;11.45;9.55;;;16.40;99.90;;;;;;7373470;19;20039;-64
2023/10/13 06:38:43;;;;;;;13.45;10.88;;;16.30;99.90;;;;;;7372180;19;20041;-62
2023/10/13 06:41:19;;;;;;;11.68;10.38;;;16.30;99.90;;;;;;7374498;19;20474;-62
2023/10/13 06:43:46;;;;;;;13.52;11.10;;;16.40;99.90;;;;;;7374542;19;20064;-64
2023/10/13 06:46:23;;;;;;;13.27;9.98;;;16.30;99.90;;;;;;7374967;19;20022;-61
2023/10/13 06:48:53;;;;;;;16.23;11.25;;;16.30;99.90;;;;;;7373405;19;20066;-62
2023/10/13 06:51:25;;;;;;;15.57;13.25;;;16.40;99.90;;;;;;7375233;19;20111;-62
2023/10/13 06:53:56;;;;;;;;;;;16.30;99.90;;;;;;7372797;19;20106;-61
2023/10/13 06:56:27;;;;;;;13.52;11.38;;;16.40;99.90;;;;;;7377441;19;19927;-62
2023/10/13 06:59:04;;;;;;;13.15;9.73;;;16.40;99.90;;;;;;7369714;19;20023;-62
2023/10/13 07:01:38;;;;;;;11.30;9.30;;;16.30;99.90;;;;;;7375281;19;20029;-62
2023/10/13 07:04:12;;;;;;;14.98;8.25;;;16.50;99.90;;;;;;7372385;19;20018;-62
2023/10/13 07:06:50;;;;;;;14.65;8.55;;;16.40;99.90;;;;;;7375529;19;20018;-62
2023/10/13 07:12:06;;;;;;;11.95;7.60;;;16.40;99.90;;;;;;7376220;19;20021;-64
2023/10/13 07:14:33;;;;;;;13.43;8.00;;;16.40;99.90;;;;;;7369372;19;20078;-63
2023/10/13 07:17:05;;;;;;;12.93;8.40;;;16.40;99.90;;;;;;7374900;19;20283;-62
2023/10/13 07:19:33;;;;;;;14.73;7.20;;;16.40;99.90;;;;;;7371510;19;20022;-62
2023/10/13 07:22:19;;;;;;;10.32;7.80;;;16.40;99.90;;;;;;7370175;19;20022;-64
2023/10/13 07:24:50;;;;;;;16.02;8.02;;;16.40;99.90;;;;;;7370139;19;20102;-62
2023/10/13 07:27:23;;;;;;;13.32;7.90;;;16.40;99.90;;;;;;7376474;19;20111;-64
2023/10/13 07:29:56;;;;;;;14.15;8.38;;;16.40;99.90;;;;;;7373726;19;20021;-61
2023/10/13 07:32:26;;;;;;;15.48;7.93;;;16.40;99.90;;;;;;7375135;19;20011;-64
2023/10/13 07:34:57;;;;;;;13.55;8.38;;;16.40;99.90;;;;;;7373561;19;20026;-65
2023/10/13 07:37:29;;;;;;;17.05;8.73;;;16.40;99.90;;;;;;7373511;19;20022;-64
2023/10/13 07:39:57;;;;;;;12.70;7.80;;;16.40;99.90;;;;;;7367525;19;20462;-66
2023/10/13 07:42:31;;;;;;;16.48;8.57;;;16.40;99.90;;;;;;7373273;19;20086;-66
2023/10/13 07:44:58;;;;;;;17.65;8.20;;;16.40;99.90;;;;;;7369339;19;20063;-66
2023/10/13 07:47:26;;;;;;;17.10;8.32;;;16.40;99.90;;;;;;7370010;19;20042;-64
2023/10/13 07:49:56;;;;;;;12.68;8.73;;;16.40;99.90;;;;;;7369657;19;20018;-62
2023/10/13 07:54:56;;;;;;;19.08;10.85;;;16.40;99.90;;;;;;7369985;19;20029;-64
2023/10/13 07:57:29;;;;;;;16.92;10.25;;;16.40;99.90;;;;;;7373136;19;20026;-66
2023/10/13 08:02:48;;;;;;;19.38;10.93;;;16.40;99.90;;;;;;7369959;19;20022;-62
2023/10/13 08:05:42;;;;;;;17.90;10.38;;;16.50;99.90;;;;;;7370984;19;20937;-65
2023/10/13 08:08:14;;;;;;;21.73;11.38;;;16.50;99.90;;;;;;7374923;19;20022;-62
2023/10/13 08:10:45;;;;;;;28.08;21.08;;;16.50;99.90;;;;;;7374642;19;20487;-65
2023/10/13 08:13:12;;;;;;;34.97;24.50;;;16.60;99.90;;;;;;7371771;19;20101;-64
2023/10/13 08:15:48;;;;;;;39.15;29.02;;;16.60;99.90;;;;;;7371886;19;20622;-65
2023/10/13 08:18:19;;;;;;;23.83;13.95;;;16.60;99.90;;;;;;7369268;19;20032;-63
2023/10/13 08:20:47;;;;;;;21.25;12.02;;;16.60;99.90;;;;;;7370203;19;20022;-63
2023/10/13 08:23:13;;;;;;;22.25;13.07;;;16.70;99.90;;;;;;7366547;19;20673;-63
2023/10/13 08:31:22;;;;;;;62.08;45.72;;;16.70;99.90;;;;;;7365327;19;20018;-59
2023/10/13 08:33:49;;;;;;;53.88;41.95;;;16.70;99.90;;;;;;7370854;19;20075;-59
2023/10/13 08:36:27;;;;;;;53.60;40.08;;;16.70;99.90;;;;;;7368445;19;20021;-59
2023/10/13 08:38:55;;;;;;;25.98;13.30;;;16.70;99.90;;;;;;7366331;19;20026;-64
2023/10/13 08:43:50;;;;;;;26.58;18.05;;;16.80;99.90;;;;;;7365603;19;20022;-65
2023/10/13 08:46:30;;;;;;;20.67;15.30;;;16.90;99.90;;;;;;7369163;19;20023;-62
2023/10/13 08:49:14;;;;;;;26.60;16.58;;;16.90;99.90;;;;;;7364176;19;20014;-64
2023/10/13 08:51:50;;;;;;;24.55;15.90;;;17.00;99.90;;;;;;7370834;19;20463;-58
2023/10/13 08:57:49;;;;;;;37.72;23.40;;;17.20;99.90;;;;;;7373027;19;20496;-62
2023/10/13 08:59:55;;;;;;;31.33;22.00;;;17.30;99.90;;;;;;7365765;19;20026;-58
2023/10/13 09:08:08;;;;;;;21.67;15.63;;;17.40;99.90;;;;;;7365609;19;20011;-58
2023/10/13 09:10:44;;;;;;;21.52;13.57;;;17.50;99.90;;;;;;7367156;19;20097;-59
2023/10/13 09:13:18;;;;;;;22.58;13.77;;;17.60;99.90;;;;;;7366805;19;20030;-64
2023/10/13 09:16:00;;;;;;;17.08;12.57;;;17.70;99.90;;;;;;7367299;19;20465;-59
2023/10/13 09:24:27;;;;;;;34.15;30.67;;;17.80;99.90;;;;;;7365081;19;20019;-59
2023/10/13 09:26:55;;;;;;;28.15;19.67;;;17.80;99.90;;;;;;7367390;19;20022;-58
2023/10/13 09:29:24;;;;;;;35.95;26.85;;;17.90;99.90;;;;;;7362996;19;20018;-59
2023/10/13 09:32:03;;;;;;;30.80;17.70;;;17.90;99.90;;;;;;7365836;19;20054;-64
2023/10/13 09:34:40;;;;;;;18.50;10.75;;;17.90;99.90;;;;;;7368703;19;20866;-64
2023/10/13 09:37:09;;;;;;;22.60;13.52;;;17.90;99.90;;;;;;7370107;19;20026;-59
2023/10/13 09:39:44;;;;;;;18.05;9.13;;;17.90;99.90;;;;;;7364201;19;20018;-59
2023/10/13 09:42:12;;;;;;;17.45;8.63;;;17.90;99.90;;;;;;7368268;19;20010;-59
2023/10/13 09:44:40;;;;;;;21.92;12.95;;;18.00;99.90;;;;;;7361328;19;20015;-59
2023/10/13 09:47:23;;;;;;;18.52;11.48;;;18.10;99.90;;;;;;7367139;19;20617;-63
2023/10/13 09:49:57;;;;;;;19.15;11.80;;;18.10;99.90;;;;;;7366282;19;20023;-59
2023/10/13 09:52:27;;;;;;;20.00;10.35;;;18.10;99.90;;;;;;7366431;19;20029;-60
2023/10/13 09:55:22;;;;;;;55.40;43.35;;;18.20;99.90;;;;;;7366492;19;20026;-62
2023/10/13 09:58:13;;;;;;;23.38;15.15;;;18.10;99.90;;;;;;7358462;19;20057;-59
2023/10/13 10:01:08;;;;;;;17.02;9.65;;;18.10;99.90;;;;;;7367459;19;20014;-59
2023/10/13 10:03:50;;;;;;;15.40;10.38;;;18.10;99.90;;;;;;7367974;19;20957;-59
2023/10/13 10:06:30;;;;;;;18.92;13.40;;;18.20;99.90;;;;;;7366028;19;20067;-59
2023/10/13 10:09:13;;;;;;;18.25;10.10;;;18.20;99.90;;;;;;7364754;19;20029;-61
2023/10/13 10:12:04;;;;;;;17.65;10.40;;;18.30;99.90;;;;;;7366015;19;20512;-63
2023/10/13 10:14:56;;;;;;;19.83;10.90;;;18.30;99.90;;;;;;7366221;19;20011;-63
2023/10/13 10:17:22;;;;;;;20.70;10.15;;;18.30;99.90;;;;;;7363956;19;20750;-59
2023/10/13 10:19:54;;;;;;;16.25;9.73;;;18.30;99.90;;;;;;7366382;19;20037;-63
2023/10/13 10:22:36;;;;;;;18.05;9.75;;;18.40;99.90;;;;;;7369814;19;20098;-60
2023/10/13 10:25:06;;;;;;;16.13;8.50;;;18.60;99.90;;;;;;7365708;19;20765;-59
2023/10/13 10:27:34;;;;;;;16.95;8.90;;;18.90;99.90;;;;;;7367011;19;20033;-60
2023/10/13 10:30:13;;;;;;;25.92;15.25;;;19.10;99.90;;;;;;7376368;19;20062;-60
2023/10/13 10:32:48;;;;;;;19.58;10.80;;;19.30;99.90;;;;;;7376762;19;20018;-63
2023/10/13 10:35:20;;;;;;;31.23;21.90;;;19.60;99.90;;;;;;7371798;19;20464;-59
2023/10/13 10:37:47;;;;;;;20.42;11.10;;;19.70;99.90;;;;;;7377106;19;20514;-63
2023/10/13 10:43:03;;;;;;;16.85;8.77;;;19.70;99.90;;;;;;7374111;19;20037;-60
2023/10/13 10:45:33;;;;;;;21.67;14.18;;;19.70;99.90;;;;;;7372611;19;20014;-59
2023/10/13 10:48:11;;;;;;;23.23;11.85;;;19.60;99.90;;;;;;7373688;19;20383;-59
2023/10/13 10:50:39;;;;;;;25.75;15.50;;;19.50;99.90;;;;;;7368991;19;20033;-64
2023/10/13 10:53:08;;;;;;;18.08;9.45;;;19.40;99.90;;;;;;7372777;19;20125;-64
2023/10/13 10:55:38;;;;;;;24.02;14.52;;;19.40;99.90;;;;;;7365992;19;20045;-60
2023/10/13 10:58:06;;;;;;;19.25;9.55;;;19.40;99.90;;;;;;7370445;19;20025;-63
2023/10/13 11:00:46;;;;;;;16.52;9.07;;;19.40;99.90;;;;;;7366830;19;20564;-59
2023/10/13 11:03:12;;;;;;;25.52;13.23;;;19.40;99.90;;;;;;7369661;19;20086;-59
2023/10/13 11:05:50;;;;;;;23.35;11.55;;;19.40;99.90;;;;;;7371351;19;20023;-59
2023/10/13 11:08:37;;;;;;;21.15;8.57;;;19.30;99.90;;;;;;7374702;19;20093;-59
2023/10/13 11:11:05;;;;;;;14.05;7.47;;;19.40;99.90;;;;;;7374847;19;20022;-62
2023/10/13 11:14:13;;;;;;;14.38;7.00;;;19.30;99.90;;;;;;7371694;19;20612;-66
2023/10/13 11:16:50;;;;;;;17.70;8.10;;;19.40;99.90;;;;;;7375704;19;20026;-66
2023/10/13 11:19:20;;;;;;;21.23;9.48;;;19.40;99.90;;;;;;7370001;19;20018;-66
2023/10/13 11:21:50;;;;;;;20.00;7.38;;;19.50;99.90;;;;;;7371263;19;20021;-67
2023/10/13 11:24:17;;;;;;;20.27;7.63;;;19.50;99.90;;;;;;7373273;19;20022;-67
2023/10/13 11:26:49;;;;;;;15.52;8.15;;;19.50;99.90;;;;;;7372395;19;20060;-63
2023/10/13 11:29:30;;;;;;;18.83;8.25;;;19.50;99.90;;;;;;7372891;19;20033;-67
2023/10/13 11:32:00;;;;;;;14.60;7.75;;;19.50;99.90;;;;;;7372839;19;20031;-67
2023/10/13 11:34:39;;;;;;;14.25;7.72;;;19.50;99.90;;;;;;7378515;19;20022;-63
2023/10/13 11:39:52;;;;;;;19.00;7.63;;;19.50;99.90;;;;;;7375694;19;20010;-63
2023/10/13 11:42:18;;;;;;;15.57;7.97;;;19.70;99.90;;;;;;7376059;19;20030;-66
2023/10/13 11:44:44;;;;;;;15.68;7.85;;;20.00;99.90;;;;;;7370959;19;20042;-62
2023/10/13 11:49:58;;;;;;;14.98;7.38;;;20.10;99.90;;;;;;7372723;19;20085;-67
2023/10/13 11:52:28;;;;;;;14.27;7.25;;;20.20;99.90;;;;;;7367732;19;20036;-63
2023/10/13 11:54:57;;;;;;;21.02;7.47;;;20.10;99.90;;;;;;7376715;19;20014;-63
2023/10/13 11:57:24;;;;;;;17.33;7.40;;;20.20;99.90;;;;;;7371144;19;20477;-66
2023/10/13 11:59:53;;;;;;;14.38;6.75;;;20.10;99.90;;;;;;7375573;19;20832;-63
2023/10/13 12:04:54;;;;;;;15.10;7.00;;;19.90;99.90;;;;;;7371184;19;20042;-66
2023/10/13 12:07:45;;;;;;;19.02;7.70;;;19.90;99.90;;;;;;7369016;19;20370;-67
2023/10/13 12:12:58;;;;;;;17.48;7.07;;;19.90;99.90;;;;;;7371656;19;20095;-67
2023/10/13 12:15:36;;;;;;;16.48;7.93;;;19.80;99.90;;;;;;7371199;19;20494;-62
2023/10/13 12:18:03;;;;;;;18.00;7.22;;;19.80;99.90;;;;;;7371252;19;20019;-61
2023/10/13 12:20:32;;;;;;;17.65;7.95;;;19.80;99.90;;;;;;7369392;19;20889;-68
2023/10/13 12:23:09;;;;;;;17.10;8.65;;;19.80;99.90;;;;;;7371434;19;20023;-62
2023/10/13 12:25:54;;;;;;;15.38;7.40;;;19.80;99.90;;;;;;7371873;19;20367;-66
2023/10/13 12:28:23;;;;;;;16.55;7.88;;;19.80;99.90;;;;;;7367398;19;20423;-66
2023/10/13 12:30:53;;;;;;;21.63;8.15;;;19.80;99.90;;;;;;7370149;19;20014;-68
2023/10/13 12:33:36;;;;;;;16.13;8.15;;;19.80;99.90;;;;;;7365751;19;20435;-67
2023/10/13 12:36:06;;;;;;;18.27;7.30;;;19.70;99.90;;;;;;7367438;19;20019;-68
2023/10/13 12:57:25;;;;;;;16.15;6.55;;;20.20;99.90;;;;;;7364791;19;20022;-67
2023/10/13 12:59:54;;;;;;;14.73;7.20;;;20.40;99.90;;;;;;7366418;19;20491;-71
2023/10/13 13:02:24;;;;;;;19.50;7.63;;;20.40;99.90;;;;;;7363770;19;20022;-69
2023/10/13 13:04:56;;;;;;;17.33;7.22;;;20.40;99.90;;;;;;7372563;19;20022;-63
2023/10/13 13:07:29;;;;;;;14.95;7.00;;;20.30;99.90;;;;;;7374991;19;20018;-65
2023/10/13 13:09:59;;;;;;;17.73;6.93;;;20.10;99.90;;;;;;7373232;19;20430;-64
2023/10/13 13:12:28;;;;;;;19.83;8.60;;;20.20;99.90;;;;;;7374656;19;20018;-64
2023/10/13 13:14:57;;;;;;;18.33;7.90;;;20.00;99.90;;;;;;7377873;19;20356;-68
2023/10/13 13:17:23;;;;;;;14.68;6.97;;;19.90;99.90;;;;;;7370728;19;20043;-63
2023/10/13 13:19:50;;;;;;;19.00;7.53;;;20.00;99.90;;;;;;7377421;19;20822;-63
2023/10/13 13:22:17;;;;;;;16.92;7.40;;;20.10;99.90;;;;;;7371326;19;21515;-63
2023/10/13 13:24:45;;;;;;;16.38;7.13;;;20.30;99.90;;;;;;7372160;19;20050;-69
2023/10/13 13:27:19;;;;;;;16.33;7.25;;;20.40;99.90;;;;;;7369024;19;20045;-64
2023/10/13 13:29:46;;;;;;;21.55;8.40;;;20.40;99.90;;;;;;7371280;19;20050;-68
2023/10/13 13:32:24;;;;;;;17.48;7.55;;;20.20;99.90;;;;;;7364834;19;20106;-67
2023/10/13 13:34:58;;;;;;;14.95;7.78;;;19.90;99.90;;;;;;7370916;19;20018;-69
2023/10/13 13:37:27;;;;;;;13.48;8.00;;;19.70;99.90;;;;;;7365379;19;20034;-69
2023/10/13 13:39:54;;;;;;;12.32;7.35;;;19.40;99.90;;;;;;7371731;19;20014;-62
2023/10/13 13:42:23;;;;;;;16.08;8.20;;;19.30;99.90;;;;;;7371359;19;20054;-62
2023/10/13 13:44:53;;;;;;;20.30;7.80;;;19.00;99.90;;;;;;7374078;19;20018;-62
2023/10/13 13:47:19;;;;;;;13.73;8.35;;;18.80;99.90;;;;;;7372716;19;20060;-67
2023/10/13 13:49:52;;;;;;;19.45;8.30;;;18.60;99.90;;;;;;7371286;19;20015;-67
2023/10/13 13:52:23;;;;;;;18.58;8.98;;;18.40;99.90;;;;;;7368006;19;20050;-68
2023/10/13 13:54:50;;;;;;;16.20;8.60;;;18.40;99.90;;;;;;7367513;19;20020;-64
2023/10/13 13:57:17;;;;;;;20.08;8.77;;;18.40;99.90;;;;;;7374468;19;20014;-66
2023/10/13 13:59:45;;;;;;;19.20;8.88;;;18.20;99.90;;;;;;7371984;19;20037;-62
2023/10/13 14:02:20;;;;;;;16.73;10.00;;;18.00;99.90;;;;;;7371860;19;20022;-62
2023/10/13 14:04:52;;;;;;;19.23;9.27;;;17.90;99.90;;;;;;7378860;19;20022;-64
2023/10/13 14:07:24;;;;;;;19.23;10.27;;;17.90;99.90;;;;;;7373245;19;20489;-67
2023/10/13 14:10:05;;;;;;;19.88;9.23;;;17.90;99.90;;;;;;7370663;19;20046;-67
2023/10/13 14:12:41;;;;;;;19.75;9.35;;;17.80;99.90;;;;;;7372440;19;20026;-62
2023/10/13 14:15:29;;;;;;;24.45;10.15;;;17.80;99.90;;;;;;7375687;19;20022;-62
2023/10/13 14:17:55;;;;;;;19.98;10.35;;;17.80;99.90;;;;;;7378476;19;20018;-68
2023/10/13 14:20:21;;;;;;;15.55;9.18;;;17.80;99.90;;;;;;7372796;19;20037;-68
2023/10/13 14:22:48;;;;;;;20.83;9.65;;;17.80;99.90;;;;;;7372597;19;20014;-68
2023/10/13 14:25:14;;;;;;;17.80;9.02;;;17.80;99.90;;;;;;7375279;19;20478;-62
2023/10/13 14:27:42;;;;;;;16.90;10.20;;;17.80;99.90;;;;;;7380004;19;20031;-68
2023/10/13 14:30:09;;;;;;;19.75;9.25;;;17.80;99.90;;;;;;7376579;19;20022;-62
2023/10/13 14:32:40;;;;;;;17.02;9.57;;;17.90;99.90;;;;;;7374423;19;20026;-69
2023/10/13 14:35:16;;;;;;;19.35;9.45;;;17.90;99.90;;;;;;7372862;19;20018;-62
2023/10/13 14:37:42;;;;;;;17.98;8.50;;;17.90;99.90;;;;;;7378308;19;20043;-67
2023/10/13 14:40:15;;;;;;;21.23;9.15;;;17.90;99.90;;;;;;7369870;19;20049;-69
2023/10/13 14:42:41;;;;;;;15.27;9.48;;;17.90;99.90;;;;;;7369791;19;20039;-69
2023/10/13 14:45:16;;;;;;;17.50;8.85;;;18.00;99.90;;;;;;7370142;19;20585;-70
2023/10/13 14:47:43;;;;;;;18.02;10.18;;;18.10;99.90;;;;;;7373249;19;20899;-68
2023/10/13 14:50:20;;;;;;;18.67;9.35;;;18.00;99.90;;;;;;7376852;19;20066;-63
2023/10/13 14:52:48;;;;;;;33.28;24.85;;;18.00;99.90;;;;;;7375612;19;20478;-64
2023/10/13 14:55:21;;;;;;;42.35;30.08;;;18.00;99.90;;;;;;7371768;19;20034;-61
2023/10/13 14:57:49;;;;;;;49.75;37.22;;;18.00;99.90;;;;;;7375554;19;20577;-62
2023/10/13 15:00:24;;;;;;;47.72;34.72;;;18.00;99.90;;;;;;7369221;19;20497;-59
2023/10/13 15:02:52;;;;;;;39.00;24.38;;;18.00;99.90;;;;;;7373995;19;20034;-58
2023/10/13 15:05:19;;;;;;;20.65;12.55;;;18.00;99.90;;;;;;7367300;19;20026;-63
2023/10/13 15:07:45;;;;;;;24.00;13.55;;;17.80;99.90;;;;;;7373790;19;20014;-60
2023/10/13 15:10:15;;;;;;;32.30;19.92;;;17.60;99.90;;;;;;7370877;19;20584;-59
2023/10/13 15:12:45;;;;;;;39.95;26.92;;;17.50;99.90;;;;;;7374380;19;20018;-63
2023/10/13 15:15:15;;;;;;;24.27;13.75;;;17.50;99.90;;;;;;7368052;19;20022;-64
2023/10/13 15:17:43;;;;;;;26.83;16.23;;;17.40;99.90;;;;;;7369866;19;20018;-58
2023/10/13 15:20:15;;;;;;;25.80;17.48;;;17.30;99.90;;;;;;7371128;19;20022;-60
2023/10/13 15:22:49;;;;;;;23.90;13.57;;;17.30;99.90;;;;;;7372411;19;20018;-64
2023/10/13 15:25:28;;;;;;;25.13;14.45;;;17.30;99.90;;;;;;7370202;19;20035;-64
2023/10/13 15:28:02;;;;;;;19.08;13.07;;;17.30;99.90;;;;;;7374368;19;20018;-64
2023/10/13 15:30:57;;;;;;;22.55;14.85;;;17.30;99.90;;;;;;7371342;19;20489;-62
2023/10/13 15:33:25;;;;;;;30.83;15.23;;;17.30;99.90;;;;;;7373855;19;20036;-65
2023/10/13 15:35:51;;;;;;;16.58;11.88;;;17.30;99.90;;;;;;7369263;19;20022;-63
2023/10/13 15:38:21;;;;;;;20.88;11.82;;;17.30;99.90;;;;;;7367150;19;20074;-64
2023/10/13 15:40:54;;;;;;;26.38;12.77;;;17.30;99.90;;;;;;7366624;19;20222;-59
2023/10/13 15:43:20;;;;;;;21.38;13.02;;;17.20;99.90;;;;;;7366403;19;20033;-60
2023/10/13 15:45:47;;;;;;;20.88;13.40;;;17.20;99.90;;;;;;7360570;19;20117;-63
2023/10/13 15:48:15;;;;;;;21.90;16.77;;;17.30;99.90;;;;;;7365838;19;20466;-63
2023/10/13 15:50:41;;;;;;;43.03;29.17;;;17.30;99.90;;;;;;7366241;19;20407;-60
2023/10/13 15:53:12;;;;;;;19.27;12.02;;;17.20;99.90;;;;;;7370703;19;20678;-60
2023/10/13 15:55:39;;;;;;;24.57;13.63;;;17.20;99.90;;;;;;7374986;19;20022;-68
2023/10/13 15:58:08;;;;;;;22.30;13.05;;;17.20;99.90;;;;;;7369578;19;20023;-67
2023/10/13 16:00:35;;;;;;;18.52;12.27;;;17.30;99.90;;;;;;7368581;19;20720;-63
2023/10/13 16:03:03;;;;;;;20.25;10.57;;;17.30;99.90;;;;;;7375704;19;20018;-62
2023/10/13 16:05:34;;;;;;;16.90;10.18;;;17.20;99.90;;;;;;7370764;19;20089;-61